.
WxDataArchive / Data Records for 2010-10-19
2010-10-18 October 2010 2010-10-20

Data Records for Tuesday, 19 October 2010

Time	Temp	Chill	HIndex	Humid	Dewpt	 Wind 	HiWind	WindDir	Rain 	Barom 
-----	----	-----	------	-----	-----	------	------	-------	-----	----- 
00:00	40.1	40.1	40.1	79	34.1	0	0	---	0.00	29.987 
00:05	39.9	39.9	39.9	79	33.9	0	0	---	0.00	29.987 
00:10	39.8	39.8	39.8	79	33.8	0	0	---	0.00	29.987 
00:15	39.6	39.6	39.6	79	33.6	0	0	---	0.00	29.984 
00:20	39.5	39.5	39.5	79	33.5	0	0	---	0.00	29.984 
00:25	39.5	39.5	39.5	78	33.2	0	0	---	0.00	29.984 
00:30	39.3	39.3	39.3	78	33.0	0	0	---	0.00	29.980 
00:35	39.3	39.3	39.3	78	33.0	0	0	---	0.00	29.980 
00:40	39.2	39.2	39.2	78	32.9	0	0	---	0.00	29.980 
00:45	39.1	39.1	39.1	78	32.8	0	0	---	0.00	29.980 
00:50	38.9	38.9	38.9	79	33.0	0	0	---	0.00	29.980 
00:55	38.6	38.6	38.6	79	32.7	0	0	---	0.00	29.980 
01:00	38.5	38.5	38.5	79	32.6	0	0	---	0.00	29.981 
01:05	38.2	38.2	38.2	80	32.6	0	0	---	0.00	29.981 
01:10	38.0	38.0	38.0	80	32.4	0	0	---	0.00	29.981 
01:15	37.9	37.9	37.9	80	32.3	0	0	---	0.00	29.976 
01:20	37.8	37.8	37.8	81	32.5	0	0	---	0.00	29.976 
01:25	37.5	37.5	37.5	81	32.2	0	0	---	0.00	29.976 
01:30	37.3	37.3	37.3	81	32.0	0	0	---	0.00	29.974 
01:35	37.2	37.2	37.2	82	32.2	0	0	---	0.00	29.974 
01:40	37.0	37.0	37.0	82	32.0	0	0	---	0.00	29.974 
01:45	36.9	36.9	36.9	83	32.2	0	0	---	0.00	29.972 
01:50	36.8	36.8	36.8	83	32.1	0	0	---	0.00	29.972 
01:55	36.5	36.5	36.5	84	32.1	0	0	---	0.00	29.972 
02:00	36.5	36.5	36.5	84	32.1	0	0	---	0.00	29.977 
02:05	36.5	36.5	36.5	84	32.1	0	0	---	0.00	29.977 
02:10	36.5	36.5	36.5	85	32.4	0	0	---	0.00	29.977 
02:15	36.5	36.5	36.5	85	32.4	0	0	---	0.00	29.983 
02:20	36.6	36.6	36.6	86	32.8	0	0	---	0.00	29.983 
02:25	36.6	36.6	36.6	86	32.8	0	0	---	0.00	29.983 
02:30	36.6	36.6	36.6	86	32.8	0	0	---	0.00	29.982 
02:35	36.8	36.8	36.8	86	33.0	0	0	---	0.00	29.982 
02:40	36.9	36.9	36.9	86	33.1	0	0	---	0.00	29.982 
02:45	36.9	36.9	36.9	87	33.4	0	0	---	0.00	29.979 
02:50	37.0	37.0	37.0	87	33.5	0	0	---	0.00	29.979 
02:55	37.0	37.0	37.0	86	33.2	0	0	---	0.00	29.979 
03:00	36.9	36.9	36.9	86	33.1	0	0	---	0.00	29.978 
03:05	36.8	36.8	36.8	86	33.0	0	0	---	0.00	29.978 
03:10	36.6	36.6	36.6	86	32.8	0	0	---	0.00	29.978 
03:15	36.5	36.5	36.5	86	32.7	0	0	---	0.00	29.980 
03:20	36.3	36.3	36.3	86	32.5	0	0	---	0.00	29.980 
03:25	36.2	36.2	36.2	86	32.4	0	0	---	0.00	29.980 
03:30	36.0	36.0	36.0	86	32.2	0	0	---	0.00	29.981 
03:35	35.9	35.9	35.9	86	32.1	0	0	---	0.00	29.981 
03:40	35.8	35.8	35.8	86	32.0	0	0	---	0.00	29.981 
03:45	35.5	35.5	35.5	87	32.0	0	0	---	0.00	29.979 
03:50	35.5	35.5	35.5	87	32.0	0	0	---	0.00	29.979 
03:55	35.3	35.3	35.3	87	31.8	0	0	---	0.00	29.979 
04:00	35.2	35.2	35.2	87	31.7	0	0	---	0.00	29.974 
04:05	35.0	35.0	35.0	87	31.5	0	0	---	0.00	29.974 
04:10	34.9	34.9	34.9	88	31.7	0	0	---	0.00	29.974 
04:15	34.7	34.7	34.7	88	31.5	0	0	---	0.00	29.978 
04:20	34.6	34.6	34.6	88	31.4	0	0	---	0.00	29.978 
04:25	34.6	34.6	34.6	88	31.4	0	0	---	0.00	29.978 
04:30	34.6	34.6	34.6	88	31.4	0	0	---	0.00	29.979 
04:35	34.6	34.6	34.6	89	31.7	0	0	---	0.00	29.979 
04:40	34.6	34.6	34.6	89	31.7	0	0	---	0.00	29.979 
04:45	34.7	34.7	34.7	89	31.8	0	0	---	0.00	29.982 
04:50	34.7	34.7	34.7	89	31.8	0	0	---	0.00	29.982 
04:55	34.6	34.6	34.6	89	31.7	0	0	---	0.00	29.982 
05:00	34.4	34.4	34.4	89	31.5	0	0	---	0.00	29.984 
05:05	34.4	34.4	34.4	89	31.5	0	0	---	0.00	29.984 
05:10	34.3	34.3	34.3	89	31.4	0	0	---	0.00	29.984 
05:15	34.1	34.1	34.1	89	31.2	0	0	---	0.00	29.982 
05:20	34.1	34.1	34.1	89	31.2	0	0	---	0.00	29.982 
05:25	34.1	34.1	34.1	89	31.2	0	0	---	0.00	29.982 
05:30	34.0	34.0	34.0	89	31.1	0	0	---	0.00	29.983 
05:35	34.0	34.0	34.0	90	31.4	0	0	---	0.00	29.983 
05:40	33.8	33.8	33.8	89	30.9	0	0	---	0.00	29.983 
05:45	33.8	33.8	33.8	90	31.2	0	0	---	0.00	29.984 
05:50	33.7	33.7	33.7	90	31.1	0	0	---	0.00	29.984 
05:55	33.7	33.7	33.7	90	31.1	0	0	---	0.00	29.984 
06:00	33.7	33.7	33.7	90	31.1	0	0	---	0.00	29.984 
06:05	33.7	33.7	33.7	90	31.1	0	0	---	0.00	29.984 
06:10	33.7	33.7	33.7	90	31.1	0	0	---	0.00	29.984 
06:15	33.7	33.7	33.7	90	31.1	0	0	---	0.00	29.991 
06:20	33.7	33.7	33.7	90	31.1	0	0	---	0.00	29.991 
06:25	33.5	33.5	33.5	91	31.2	0	0	---	0.00	29.991 
06:30	33.5	33.5	33.5	91	31.2	0	0	---	0.00	29.993 
06:35	33.4	33.4	33.4	91	31.1	0	0	---	0.00	29.993 
06:40	33.2	33.2	33.2	91	30.9	0	0	---	0.00	29.993 
06:45	33.2	33.2	33.2	91	30.9	0	0	---	0.00	30.000 
06:50	33.2	33.2	33.2	91	30.9	0	0	---	0.00	30.000 
06:55	33.2	33.2	33.2	91	30.9	0	0	---	0.00	30.000 
07:00	33.2	33.2	33.2	91	30.9	0	0	---	0.00	30.001 
07:05	33.2	33.2	33.2	91	30.9	0	0	---	0.00	30.001 
07:10	33.4	33.4	33.4	92	31.3	0	0	---	0.00	30.001 
07:15	33.7	33.7	33.7	92	31.6	0	0	---	0.00	30.001 
07:20	33.8	33.8	33.8	92	31.7	0	0	---	0.00	30.001 
07:25	33.8	33.8	33.8	92	31.7	0	0	---	0.00	30.001 
07:30	33.8	33.8	33.8	92	31.7	0	0	---	0.00	29.995 
07:35	33.8	33.8	33.8	92	31.7	0	0	---	0.00	29.995 
07:40	33.8	33.8	33.8	92	31.7	0	0	---	0.00	29.995 
07:45	33.7	33.7	33.7	92	31.6	0	0	---	0.00	29.998 
07:50	33.5	33.5	33.5	92	31.4	0	0	---	0.00	29.998 
07:55	33.5	33.5	33.5	92	31.4	0	0	---	0.00	29.998 
08:00	33.4	33.4	33.4	92	31.3	0	0	---	0.00	29.998 
08:05	33.2	33.2	33.2	92	31.1	0	0	---	0.00	29.998 
08:10	33.2	33.2	33.2	92	31.1	0	0	---	0.00	29.998 
08:15	33.2	33.2	33.2	92	31.1	0	0	---	0.00	30.005 
08:20	33.2	33.2	33.2	92	31.1	0	1	90	0.00	30.005 
08:25	33.4	33.4	33.4	92	31.3	0	0	---	0.00	30.005 
08:30	33.4	33.4	33.4	92	31.3	0	0	---	0.00	30.010 
08:35	33.7	33.7	33.7	92	31.6	0	0	---	0.00	30.010 
08:40	34.0	34.0	34.0	93	32.2	0	0	---	0.00	30.010 
08:45	34.4	34.4	34.4	93	32.6	0	0	---	0.00	30.015 
08:50	35.3	35.3	35.3	93	33.5	0	0	---	0.00	30.015 
08:55	35.9	35.9	35.9	93	34.1	0	0	---	0.00	30.015 
09:00	36.5	36.5	36.5	93	34.7	0	0	---	0.00	30.021 
09:05	37.2	37.2	37.2	93	35.4	0	0	---	0.00	30.021 
09:10	37.9	37.9	37.9	93	36.1	0	0	---	0.00	30.021 
09:15	38.5	38.5	38.5	93	36.7	0	0	---	0.00	30.025 
09:20	39.3	39.3	39.3	92	37.2	0	0	---	0.00	30.025 
09:25	40.1	40.1	40.1	92	38.0	0	1	90	0.00	30.025 
09:30	40.6	40.6	40.6	90	37.9	0	1	90	0.00	30.027 
09:35	41.3	41.3	41.3	88	38.0	0	1	90	0.00	30.027 
09:40	42.1	42.1	42.1	86	38.2	0	0	---	0.00	30.027 
09:45	43.1	43.1	43.1	84	38.6	0	1	90	0.00	30.031 
09:50	44.1	44.1	44.1	82	39.0	0	0	---	0.00	30.031 
09:55	44.9	44.9	44.9	79	38.8	0	1	90	0.00	30.031 
10:00	45.7	45.7	45.7	76	38.6	0	0	---	0.00	30.025 
10:05	46.2	46.2	46.2	73	38.0	0	0	---	0.00	30.025 
10:10	47.0	47.0	47.0	69	37.4	0	1	90	0.00	30.025 
10:15	47.6	47.6	47.6	64	36.0	0	1	90	0.00	30.025 
10:20	48.3	48.3	48.3	62	35.9	0	1	90	0.00	30.025 
10:25	49.1	49.1	49.1	59	35.4	0	1	90	0.00	30.025 
10:30	49.9	49.9	49.9	57	35.3	0	1	90	0.00	30.021 
10:35	50.8	50.8	50.8	55	35.2	0	1	90	0.00	30.021 
10:40	51.6	51.6	51.6	52	34.6	0	1	90	0.00	30.021 
10:45	52.5	52.5	52.5	52	35.4	0	1	90	0.00	30.022 
10:50	53.1	53.1	53.1	50	35.0	0	2	90	0.00	30.022 
10:55	53.5	53.5	53.5	50	35.3	0	3	292	0.00	30.022 
11:00	53.8	53.8	53.8	49	35.1	0	0	---	0.00	30.024 
11:05	54.4	54.4	54.4	50	36.2	0	2	292	0.00	30.024 
11:10	54.4	54.4	54.4	48	35.1	1	3	292	0.00	30.024 
11:15	54.5	54.5	54.5	49	35.7	1	3	292	0.00	30.017 
11:20	54.7	54.7	54.7	48	35.4	1	3	270	0.00	30.017 
11:25	55.0	55.0	55.0	47	35.1	1	4	270	0.00	30.017 
11:30	54.8	54.8	54.8	48	35.5	1	4	270	0.00	30.017 
11:35	55.0	55.0	55.0	48	35.7	0	2	338	0.00	30.017 
11:40	55.4	55.4	55.4	49	36.6	0	3	338	0.00	30.017 
11:45	55.6	55.6	55.6	48	36.2	1	3	248	0.00	30.011 
11:50	55.6	55.6	55.6	49	36.7	1	2	338	0.00	30.011 
11:55	55.9	55.9	55.9	49	37.0	1	3	315	0.00	30.011 
12:00	56.2	56.2	56.2	47	36.2	1	4	248	0.00	30.009 
12:05	56.0	56.0	56.0	48	36.6	1	5	338	0.00	30.009 
12:10	56.0	56.0	56.0	49	37.1	0	3	338	0.00	30.009 
12:15	56.2	56.2	56.2	47	36.2	2	5	270	0.00	30.010 
12:20	56.3	56.3	56.3	46	35.8	2	4	0	0.00	30.010 
12:25	55.9	55.9	55.9	46	35.4	3	6	315	0.00	30.010 
12:30	55.6	55.6	55.6	47	35.7	2	3	292	0.00	30.012 
12:35	55.7	55.7	55.7	47	35.8	1	3	292	0.00	30.012 
12:40	56.6	56.6	56.6	46	36.1	1	4	338	0.00	30.012 
12:45	57.3	57.3	57.3	45	36.1	2	6	270	0.00	30.006 
12:50	57.3	57.3	57.3	45	36.1	2	3	248	0.00	30.006 
12:55	57.3	57.3	57.3	45	36.1	1	5	292	0.00	30.006 
13:00	57.8	57.8	57.8	44	36.0	1	5	270	0.00	29.998 
13:05	58.0	58.0	58.0	44	36.2	2	4	315	0.00	29.998 
13:10	57.3	57.3	57.3	45	36.1	1	4	315	0.00	29.998 
13:15	57.3	57.3	57.3	43	35.0	2	5	315	0.00	29.996 
13:20	56.9	56.9	56.9	44	35.2	2	3	292	0.00	29.996 
13:25	57.3	57.3	57.3	43	35.0	2	5	270	0.00	29.996 
13:30	58.1	58.1	58.1	43	35.7	1	4	270	0.00	29.990 
13:35	58.6	58.6	58.6	43	36.2	2	4	338	0.00	29.990 
13:40	59.3	59.3	59.3	41	35.6	2	4	292	0.00	29.990 
13:45	59.2	59.2	59.2	42	36.1	2	4	292	0.00	29.980 
13:50	58.6	58.6	58.6	39	33.7	1	5	292	0.00	29.980 
13:55	57.8	57.8	57.8	42	34.9	2	3	292	0.00	29.980 
14:00	57.6	57.6	57.6	42	34.7	1	4	292	0.00	29.972 
14:05	57.8	57.8	57.8	41	34.3	2	4	315	0.00	29.972 
14:10	57.3	57.3	57.3	42	34.4	1	4	315	0.00	29.972 
14:15	57.8	57.8	57.8	42	34.9	1	4	270	0.00	29.966 
14:20	58.3	58.3	58.3	41	34.7	1	4	338	0.00	29.966 
14:25	58.9	58.9	58.9	41	35.2	1	3	315	0.00	29.966 
14:30	58.9	58.9	58.9	40	34.6	1	4	315	0.00	29.962 
14:35	59.2	59.2	59.2	41	35.5	1	3	292	0.00	29.962 
14:40	59.8	59.8	59.8	39	34.8	1	4	292	0.00	29.962 
14:45	59.6	59.6	59.6	38	34.0	2	4	270	0.00	29.961 
14:50	59.0	59.0	59.0	39	34.1	1	4	292	0.00	29.961 
14:55	58.7	58.7	58.7	40	34.4	1	4	315	0.00	29.961 
15:00	58.4	58.4	58.4	41	34.8	1	3	270	0.00	29.958 
15:05	58.4	58.4	58.4	41	34.8	1	4	270	0.00	29.958 
15:10	58.7	58.7	58.7	40	34.4	2	5	338	0.00	29.958 
15:15	58.7	58.7	58.7	39	33.8	2	5	270	0.00	29.957 
15:20	58.6	58.6	58.6	39	33.7	2	5	270	0.00	29.957 
15:25	58.4	58.4	58.4	40	34.2	2	5	248	0.00	29.957 
15:30	58.6	58.6	58.6	39	33.7	1	3	248	0.00	29.952 
15:35	58.4	58.4	58.4	41	34.8	1	3	248	0.00	29.952 
15:40	58.3	58.3	58.3	40	34.1	1	4	248	0.00	29.952 
15:45	58.3	58.3	58.3	40	34.1	1	3	248	0.00	29.951 
15:50	58.3	58.3	58.3	40	34.1	0	1	248	0.00	29.951 
15:55	58.6	58.6	58.6	39	33.7	2	6	248	0.00	29.951 
16:00	58.7	58.7	58.7	39	33.8	2	4	248	0.00	29.946 
16:05	58.6	58.6	58.6	39	33.7	2	4	248	0.00	29.946 
16:10	58.6	58.6	58.6	39	33.7	1	3	248	0.00	29.946 
16:15	58.4	58.4	58.4	39	33.5	1	3	248	0.00	29.948 
16:20	58.4	58.4	58.4	41	34.8	1	2	248	0.00	29.948 
16:25	58.3	58.3	58.3	41	34.7	1	5	270	0.00	29.948 
16:30	58.3	58.3	58.3	42	35.3	0	2	248	0.00	29.948 
16:35	58.6	58.6	58.6	39	33.7	1	6	248	0.00	29.948 
16:40	58.9	58.9	58.9	37	32.7	1	5	248	0.00	29.948 
16:45	58.9	58.9	58.9	38	33.3	1	6	248	0.00	29.944 
16:50	58.7	58.7	58.7	38	33.2	2	4	248	0.00	29.944 
16:55	58.6	58.6	58.6	37	32.4	2	3	248	0.00	29.944 
17:00	58.4	58.4	58.4	38	32.9	1	4	270	0.00	29.948 
17:05	58.3	58.3	58.3	39	33.5	1	3	270	0.00	29.948 
17:10	58.1	58.1	58.1	39	33.3	0	1	248	0.00	29.948 
17:15	58.0	58.0	58.0	40	33.8	1	2	292	0.00	29.946 
17:20	58.0	58.0	58.0	39	33.2	1	3	292	0.00	29.946 
17:25	58.0	58.0	58.0	40	33.8	1	3	270	0.00	29.946 
17:30	57.8	57.8	57.8	39	33.0	1	3	248	0.00	29.946 
17:35	57.8	57.8	57.8	40	33.6	0	3	248	0.00	29.946 
17:40	57.8	57.8	57.8	40	33.6	0	3	248	0.00	29.946 
17:45	57.8	57.8	57.8	40	33.6	1	3	248	0.00	29.943 
17:50	57.6	57.6	57.6	39	32.8	1	3	248	0.00	29.943 
17:55	57.6	57.6	57.6	40	33.5	0	3	225	0.00	29.943 
18:00	57.5	57.5	57.5	40	33.4	0	1	225	0.00	29.941 
18:05	57.3	57.3	57.3	41	33.8	0	1	225	0.00	29.941 
18:10	57.2	57.2	57.2	41	33.7	0	3	248	0.00	29.941 
18:15	57.3	57.3	57.3	41	33.8	0	2	248	0.00	29.939 
18:20	57.3	57.3	57.3	40	33.2	1	3	248	0.00	29.939 
18:25	57.3	57.3	57.3	40	33.2	1	3	270	0.00	29.939 
18:30	57.0	57.0	57.0	41	33.5	0	1	248	0.00	29.937 
18:35	56.9	56.9	56.9	41	33.4	0	1	248	0.00	29.937 
18:40	56.7	56.7	56.7	42	33.9	0	2	248	0.00	29.937 
18:45	56.5	56.5	56.5	42	33.7	0	3	248	0.00	29.939 
18:50	56.3	56.3	56.3	43	34.1	0	2	248	0.00	29.939 
18:55	56.2	56.2	56.2	43	34.0	0	1	248	0.00	29.939 
19:00	55.9	55.9	55.9	43	33.7	0	1	248	0.00	29.939 
19:05	55.6	55.6	55.6	44	34.0	0	0	---	0.00	29.939 
19:10	55.1	55.1	55.1	45	34.1	0	0	---	0.00	29.939 
19:15	54.8	54.8	54.8	46	34.4	0	0	---	0.00	29.940 
19:20	54.4	54.4	54.4	46	34.1	0	1	248	0.00	29.940 
19:25	53.9	53.9	53.9	47	34.1	0	0	---	0.00	29.940 
19:30	53.5	53.5	53.5	48	34.3	0	0	---	0.00	29.947 
19:35	52.9	52.9	52.9	50	34.8	0	0	---	0.00	29.947 
19:40	52.3	52.3	52.3	51	34.7	0	0	---	0.00	29.947 
19:45	52.2	52.2	52.2	51	34.6	0	0	---	0.00	29.956 
19:50	51.7	51.7	51.7	52	34.6	0	0	---	0.00	29.956 
19:55	51.4	51.4	51.4	52	34.4	0	0	---	0.00	29.956 
20:00	51.0	51.0	51.0	53	34.5	0	0	---	0.00	29.954 
20:05	50.5	50.5	50.5	53	34.0	0	0	---	0.00	29.954 
20:10	50.1	50.1	50.1	54	34.1	0	0	---	0.00	29.954 
20:15	49.6	49.6	49.6	54	33.6	0	0	---	0.00	29.955 
20:20	49.2	49.2	49.2	56	34.2	0	0	---	0.00	29.955 
20:25	48.8	48.8	48.8	57	34.3	0	0	---	0.00	29.955 
20:30	48.3	48.3	48.3	58	34.2	0	0	---	0.00	29.955 
20:35	47.9	47.9	47.9	58	33.8	0	0	---	0.00	29.955 
20:40	47.4	47.4	47.4	59	33.8	0	0	---	0.00	29.955 
20:45	47.0	47.0	47.0	60	33.8	0	0	---	0.00	29.957 
20:50	46.5	46.5	46.5	61	33.8	0	0	---	0.00	29.957 
20:55	46.1	46.1	46.1	62	33.8	0	0	---	0.00	29.957 
21:00	45.7	45.7	45.7	63	33.8	0	0	---	0.00	29.959 
21:05	45.2	45.2	45.2	65	34.1	0	0	---	0.00	29.959 
21:10	44.9	44.9	44.9	65	33.9	0	0	---	0.00	29.959 
21:15	44.6	44.6	44.6	66	34.0	0	0	---	0.00	29.952 
21:20	44.3	44.3	44.3	67	34.0	0	0	---	0.00	29.952 
21:25	44.1	44.1	44.1	67	33.9	0	0	---	0.00	29.952 
21:30	43.8	43.8	43.8	68	33.9	0	0	---	0.00	29.953 
21:35	43.6	43.6	43.6	69	34.1	0	0	---	0.00	29.953 
21:40	43.3	43.3	43.3	69	33.8	0	0	---	0.00	29.953 
21:45	43.1	43.1	43.1	69	33.6	0	0	---	0.00	29.953 
21:50	42.8	42.8	42.8	69	33.3	0	0	---	0.00	29.953 
21:55	42.6	42.6	42.6	70	33.5	0	0	---	0.00	29.953 
22:00	42.3	42.3	42.3	71	33.6	0	0	---	0.00	29.953 
22:05	41.9	41.9	41.9	72	33.5	0	0	---	0.00	29.953 
22:10	41.6	41.6	41.6	73	33.6	0	0	---	0.00	29.953 
22:15	41.5	41.5	41.5	73	33.5	0	0	---	0.00	29.949 
22:20	41.2	41.2	41.2	74	33.6	0	0	---	0.00	29.949 
22:25	40.9	40.9	40.9	75	33.6	0	0	---	0.00	29.949 
22:30	40.8	40.8	40.8	75	33.5	0	0	---	0.00	29.955 
22:35	40.5	40.5	40.5	76	33.5	0	0	---	0.00	29.955 
22:40	40.3	40.3	40.3	77	33.7	0	0	---	0.00	29.955 
22:45	40.2	40.2	40.2	77	33.6	0	0	---	0.00	29.957 
22:50	40.1	40.1	40.1	77	33.5	0	0	---	0.00	29.957 
22:55	39.9	39.9	39.9	78	33.6	0	0	---	0.00	29.957 
23:00	39.8	39.8	39.8	78	33.5	0	0	---	0.00	29.958 
23:05	39.6	39.6	39.6	79	33.6	0	0	---	0.00	29.958 
23:10	39.5	39.5	39.5	79	33.5	0	0	---	0.00	29.958 
23:15	39.3	39.3	39.3	80	33.7	0	0	---	0.00	29.957 
23:20	39.2	39.2	39.2	80	33.6	0	0	---	0.00	29.957 
23:25	39.1	39.1	39.1	81	33.8	0	0	---	0.00	29.957 
23:30	38.9	38.9	38.9	81	33.6	0	0	---	0.00	29.951 
23:35	38.8	38.8	38.8	81	33.5	0	0	---	0.00	29.951 
23:40	38.6	38.6	38.6	81	33.3	0	0	---	0.00	29.951 
23:45	38.5	38.5	38.5	82	33.5	0	0	---	0.00	29.950 
23:50	38.5	38.5	38.5	82	33.5	0	0	---	0.00	29.950 
23:55	38.5	38.5	38.5	83	33.8	0	0	---	0.00	29.950 

CoCoRaHS
IN-AL-39
A2 Web Hosting
Creative Commons License
GoDaddy
search engine by freefind advanced

loaded 2018-11-13 23:51:57 • last modified 2010-11-18 10:43:29
Privacy PolicyDisclaimer
• wx.awcolley.com is powered by PmWiki v.2002016 •
• all content (unless otherwise noted) © 2018 A W Colley